Time;durP1;ratioP1;P1;durP2;ratioP2;P2;SDS_P1;SDS_P2;PMS_P1;PMS_P2;Temp;Humidity;BMP_temperature;BMP_pressure;BME280_temperature;BME280_humidity;BME280_pressure;Samples;Min_cycle;Max_cycle;Signal;HPM_P1;HPM_P2
2022/04/10 00:01:18;;;;;;;2.73;1.13;;;4.50;99.90;;;;;;5014680;28;20227;-75
2022/04/10 00:03:43;;;;;;;2.53;1.57;;;4.50;99.90;;;;;;5012157;28;20185;-76
2022/04/10 00:06:09;;;;;;;2.77;2.03;;;4.50;99.90;;;;;;5012795;28;20177;-75
2022/04/10 00:08:35;;;;;;;1.77;1.67;;;4.50;99.90;;;;;;5013146;28;20320;-75
2022/04/10 00:11:00;;;;;;;3.30;1.70;;;4.40;99.90;;;;;;5013941;28;20466;-75
2022/04/10 00:13:26;;;;;;;1.90;1.80;;;4.30;99.90;;;;;;5026088;28;20180;-75
2022/04/10 00:15:52;;;;;;;1.70;1.60;;;4.30;99.90;;;;;;5011193;28;20544;-76
2022/04/10 00:18:17;;;;;;;1.67;1.57;;;4.30;99.90;;;;;;5007420;28;20244;-75
2022/04/10 00:20:43;;;;;;;2.13;1.80;;;4.50;99.90;;;;;;5012854;28;20255;-73
2022/04/10 00:23:09;;;;;;;1.63;1.53;;;4.50;99.90;;;;;;5009547;28;20602;-75
2022/04/10 00:25:34;;;;;;;1.70;1.60;;;4.70;99.90;;;;;;5013239;28;20209;-76
2022/04/10 00:28:00;;;;;;;2.23;1.70;;;4.60;99.90;;;;;;5010487;28;20204;-73
2022/04/10 00:30:27;;;;;;;3.23;1.80;;;4.60;99.90;;;;;;5012385;28;20263;-75
2022/04/10 00:32:52;;;;;;;2.53;1.80;;;4.50;99.90;;;;;;5013521;28;20182;-76
2022/04/10 00:35:18;;;;;;;1.73;1.63;;;4.40;99.90;;;;;;5014931;28;20170;-75
2022/04/10 00:37:44;;;;;;;1.50;1.40;;;4.30;99.90;;;;;;5004738;28;21836;-75
2022/04/10 00:40:10;;;;;;;2.97;1.60;;;4.30;99.90;;;;;;5026706;28;20197;-76
2022/04/10 00:42:37;;;;;;;2.20;2.00;;;4.10;99.90;;;;;;5012017;28;20207;-76
2022/04/10 00:45:05;;;;;;;2.17;1.70;;;4.10;99.90;;;;;;5009069;28;20177;-76
2022/04/10 00:47:31;;;;;;;3.73;1.80;;;4.10;99.90;;;;;;5008830;28;20266;-75
2022/04/10 00:49:58;;;;;;;1.70;1.53;;;4.10;99.90;;;;;;5013179;28;20193;-75
2022/04/10 00:52:26;;;;;;;3.10;1.70;;;4.00;99.90;;;;;;5027466;28;20180;-74
2022/04/10 00:54:52;;;;;;;3.33;2.10;;;4.00;99.90;;;;;;5014067;28;20177;-75
2022/04/10 00:57:19;;;;;;;1.67;1.57;;;4.00;99.90;;;;;;5014927;28;20554;-75
2022/04/10 00:59:45;;;;;;;1.77;1.67;;;4.10;99.90;;;;;;5013707;28;20188;-74
2022/04/10 01:02:10;;;;;;;3.53;1.60;;;4.10;99.90;;;;;;5014041;28;20185;-74
2022/04/10 01:04:37;;;;;;;2.43;1.57;;;4.30;99.90;;;;;;5013467;28;20192;-73
2022/04/10 01:07:04;;;;;;;1.67;1.57;;;4.40;99.90;;;;;;5011998;28;20212;-72
2022/04/10 01:09:31;;;;;;;1.67;1.50;;;4.40;99.90;;;;;;5012104;28;20192;-76
2022/04/10 01:11:57;;;;;;;2.70;1.93;;;4.50;99.90;;;;;;5010681;28;20197;-75
2022/04/10 01:14:23;;;;;;;3.63;1.80;;;4.40;99.90;;;;;;5009438;28;20186;-75
2022/04/10 01:16:49;;;;;;;3.40;2.13;;;4.30;99.90;;;;;;5009871;28;20216;-75
2022/04/10 01:19:19;;;;;;;2.40;1.97;;;4.20;99.90;;;;;;5027164;28;20193;-75
2022/04/10 01:21:49;;;;;;;3.00;2.33;;;4.10;99.90;;;;;;5006543;28;20181;-75
2022/04/10 01:24:15;;;;;;;3.43;2.07;;;4.10;99.90;;;;;;5006505;28;20180;-73
2022/04/10 01:26:42;;;;;;;2.50;2.23;;;4.10;99.90;;;;;;5006552;28;20291;-70
2022/04/10 01:29:10;;;;;;;2.67;2.00;;;4.10;99.90;;;;;;5006340;28;20247;-70
2022/04/10 01:31:41;;;;;;;2.90;2.70;;;4.00;99.90;;;;;;5013184;28;20236;-70
2022/04/10 01:34:09;;;;;;;3.07;2.10;;;4.00;99.90;;;;;;5003982;28;20182;-70
2022/04/10 01:36:36;;;;;;;2.93;2.63;;;4.00;99.90;;;;;;5011735;28;20265;-70
2022/04/10 01:39:04;;;;;;;2.17;2.07;;;3.90;99.90;;;;;;5007255;28;20668;-69
2022/04/10 01:41:31;;;;;;;2.33;2.17;;;3.90;99.90;;;;;;5012217;28;20977;-70
2022/04/10 01:43:58;;;;;;;3.80;2.57;;;3.90;99.90;;;;;;5006045;28;20196;-70
2022/04/10 01:46:25;;;;;;;3.00;2.43;;;3.70;99.90;;;;;;5014490;28;20220;-68
2022/04/10 01:48:51;;;;;;;2.20;2.10;;;3.70;99.90;;;;;;5007379;28;20213;-70
2022/04/10 01:51:17;;;;;;;2.50;2.23;;;3.60;99.90;;;;;;5005821;28;20245;-70
2022/04/10 01:53:42;;;;;;;2.80;2.60;;;3.50;99.90;;;;;;5009576;28;20327;-69
2022/04/10 01:56:09;;;;;;;3.90;2.30;;;3.50;99.90;;;;;;5006313;28;20217;-70
2022/04/10 01:58:46;;;;;;;2.90;2.70;;;3.40;99.90;;;;;;5009061;28;20701;-70
2022/04/10 02:01:16;;;;;;;2.80;2.60;;;3.30;99.90;;;;;;5010199;28;20181;-70
2022/04/10 02:03:43;;;;;;;2.90;2.70;;;3.20;99.90;;;;;;5007723;28;20195;-70
2022/04/10 02:06:10;;;;;;;2.60;2.27;;;3.20;99.90;;;;;;5012968;28;20652;-70
2022/04/10 02:08:36;;;;;;;3.57;2.83;;;3.20;99.90;;;;;;5009234;28;20185;-70
2022/04/10 02:11:12;;;;;;;3.53;2.50;;;3.20;99.90;;;;;;5010084;28;20220;-70
2022/04/10 02:13:39;;;;;;;2.50;2.30;;;3.20;99.90;;;;;;5006855;28;20204;-73
2022/04/10 02:16:12;;;;;;;3.07;2.80;;;3.10;99.90;;;;;;5008305;28;20181;-72
2022/04/10 02:18:37;;;;;;;7.27;1.90;;;3.10;99.90;;;;;;5009078;28;20311;-73
2022/04/10 02:21:03;;;;;;;4.20;2.90;;;3.00;99.90;;;;;;5003403;28;20272;-71
2022/04/10 02:23:30;;;;;;;3.20;3.00;;;3.00;99.90;;;;;;5011498;28;20566;-72
2022/04/10 02:25:55;;;;;;;2.63;2.53;;;3.00;99.90;;;;;;5006676;28;20188;-73
2022/04/10 02:28:21;;;;;;;2.27;2.17;;;3.00;99.90;;;;;;5012637;28;20196;-72
2022/04/10 02:30:47;;;;;;;3.00;2.80;;;2.90;99.90;;;;;;5011902;28;20203;-72
2022/04/10 02:33:13;;;;;;;2.87;2.67;;;2.90;99.90;;;;;;5012230;28;20185;-72
2022/04/10 02:35:40;;;;;;;5.00;3.13;;;2.90;99.90;;;;;;5009054;28;20471;-72
2022/04/10 02:38:06;;;;;;;3.40;3.10;;;2.90;99.90;;;;;;5008540;28;20233;-72
2022/04/10 02:40:31;;;;;;;3.20;3.00;;;2.70;99.90;;;;;;5011402;28;20227;-73
2022/04/10 02:42:57;;;;;;;3.10;2.80;;;2.60;99.90;;;;;;5008058;28;20185;-73
2022/04/10 02:45:23;;;;;;;5.47;3.33;;;2.50;99.90;;;;;;5011193;28;20185;-73
2022/04/10 02:47:48;;;;;;;3.20;3.00;;;2.40;99.90;;;;;;5010761;28;20287;-72
2022/04/10 02:50:14;;;;;;;3.00;2.80;;;2.30;99.90;;;;;;5006638;28;20219;-72
2022/04/10 02:52:40;;;;;;;3.27;3.07;;;2.20;99.90;;;;;;5010610;28;20530;-71
2022/04/10 02:55:08;;;;;;;3.33;3.03;;;2.20;99.90;;;;;;5009367;28;20177;-72
2022/04/10 02:57:34;;;;;;;3.53;3.23;;;2.20;99.90;;;;;;5012675;28;20271;-72
2022/04/10 03:00:00;;;;;;;4.70;3.00;;;2.20;99.90;;;;;;5003102;28;20185;-71
2022/04/10 03:02:25;;;;;;;3.20;2.93;;;2.20;99.90;;;;;;5010341;28;20554;-73
2022/04/10 03:04:51;;;;;;;3.00;2.80;;;2.00;99.90;;;;;;5009199;28;20195;-73
2022/04/10 03:07:16;;;;;;;3.60;3.30;;;2.10;99.90;;;;;;5012654;28;20283;-71
2022/04/10 03:09:42;;;;;;;3.53;3.33;;;2.10;99.90;;;;;;5006197;28;20220;-72
2022/04/10 03:12:08;;;;;;;3.50;2.90;;;2.00;99.90;;;;;;5004854;28;20212;-73
2022/04/10 03:14:35;;;;;;;3.50;3.10;;;1.90;99.90;;;;;;5008178;28;20187;-73
2022/04/10 03:17:00;;;;;;;5.00;3.53;;;1.90;99.90;;;;;;5013095;28;20676;-72
2022/04/10 03:19:26;;;;;;;3.20;3.00;;;1.90;99.90;;;;;;5006669;28;20196;-73
2022/04/10 03:21:52;;;;;;;3.50;3.30;;;1.80;99.90;;;;;;5005368;28;20188;-72
2022/04/10 03:24:17;;;;;;;3.07;2.87;;;1.80;99.90;;;;;;5013518;28;20173;-72
2022/04/10 03:26:43;;;;;;;3.63;3.33;;;1.70;99.90;;;;;;5010955;28;20255;-72
2022/04/10 03:29:09;;;;;;;5.50;3.03;;;1.80;99.90;;;;;;5008919;28;20268;-72
2022/04/10 03:31:35;;;;;;;5.97;2.90;;;1.70;99.90;;;;;;5016138;28;20307;-71
2022/04/10 03:34:01;;;;;;;3.60;3.03;;;1.70;99.90;;;;;;5015458;28;20272;-71
2022/04/10 03:36:26;;;;;;;3.27;3.07;;;1.70;99.90;;;;;;5011633;28;20209;-72
2022/04/10 03:38:52;;;;;;;3.50;2.70;;;1.70;99.90;;;;;;5012658;28;20177;-73
2022/04/10 03:41:17;;;;;;;3.20;2.80;;;1.70;99.90;;;;;;5015736;28;20193;-72
2022/04/10 03:43:43;;;;;;;2.90;2.80;;;1.60;99.90;;;;;;5010872;28;20649;-72
2022/04/10 03:46:09;;;;;;;3.27;3.07;;;1.60;99.90;;;;;;5014720;28;20192;-72
2022/04/10 03:48:34;;;;;;;3.43;3.10;;;1.60;99.90;;;;;;5011310;28;20188;-72
2022/04/10 03:51:00;;;;;;;3.60;3.27;;;1.60;99.90;;;;;;5015130;28;20205;-72
2022/04/10 03:53:25;;;;;;;3.00;2.80;;;1.60;99.90;;;;;;5016051;28;20181;-72
2022/04/10 03:55:51;;;;;;;3.90;3.00;;;1.70;99.90;;;;;;5008680;28;20192;-72
2022/04/10 03:58:17;;;;;;;3.70;2.87;;;1.70;99.90;;;;;;5016186;28;20642;-72
2022/04/10 04:00:44;;;;;;;3.33;3.03;;;1.70;99.90;;;;;;5015842;28;20655;-72
2022/04/10 04:03:10;;;;;;;3.70;3.40;;;1.70;99.90;;;;;;5013173;28;20275;-72
2022/04/10 04:05:35;;;;;;;3.33;3.10;;;1.50;99.90;;;;;;5012956;28;20284;-72
2022/04/10 04:08:01;;;;;;;3.60;3.27;;;1.50;99.90;;;;;;5013499;28;20672;-72
2022/04/10 04:10:27;;;;;;;3.40;3.10;;;1.50;99.90;;;;;;5013143;28;20650;-72
2022/04/10 04:12:53;;;;;;;5.20;2.67;;;1.60;99.90;;;;;;5008565;28;20191;-73
2022/04/10 04:15:18;;;;;;;4.40;3.47;;;1.70;99.90;;;;;;5011042;28;20650;-70
2022/04/10 04:17:44;;;;;;;5.30;3.03;;;1.80;99.90;;;;;;5010213;28;20205;-72
2022/04/10 04:20:10;;;;;;;3.57;3.30;;;1.80;99.90;;;;;;5000251;28;20216;-73
2022/04/10 04:22:36;;;;;;;3.20;2.90;;;1.80;99.90;;;;;;5002260;28;20193;-73
2022/04/10 04:25:03;;;;;;;3.33;2.87;;;1.80;99.90;;;;;;5013612;28;20212;-73
2022/04/10 04:27:29;;;;;;;3.97;2.77;;;1.80;99.90;;;;;;5012833;28;20682;-73
2022/04/10 04:29:54;;;;;;;3.37;3.17;;;1.80;99.90;;;;;;5002446;28;20216;-72
2022/04/10 04:32:20;;;;;;;3.50;3.00;;;1.80;99.90;;;;;;5004743;28;20189;-73
2022/04/10 04:34:49;;;;;;;3.50;3.30;;;1.70;99.90;;;;;;5003877;28;20204;-73
2022/04/10 04:37:14;;;;;;;3.50;3.20;;;1.70;99.90;;;;;;5013138;28;20198;-74
2022/04/10 04:39:40;;;;;;;4.37;3.17;;;1.70;99.90;;;;;;5008249;28;20196;-73
2022/04/10 04:42:06;;;;;;;5.87;2.90;;;1.70;99.90;;;;;;5007839;28;20189;-73
2022/04/10 04:44:32;;;;;;;3.70;3.40;;;1.70;99.90;;;;;;5014498;28;20234;-73
2022/04/10 04:46:58;;;;;;;3.90;3.17;;;1.70;99.90;;;;;;5028742;28;20672;-74
2022/04/10 04:49:24;;;;;;;3.37;3.10;;;1.80;99.90;;;;;;5026399;28;20228;-73
2022/04/10 04:51:50;;;;;;;4.17;3.07;;;1.70;99.90;;;;;;5021956;28;20549;-73
2022/04/10 04:54:16;;;;;;;3.50;2.40;;;1.80;99.90;;;;;;5012811;28;20178;-72
2022/04/10 04:56:41;;;;;;;3.80;2.70;;;1.80;99.90;;;;;;5012327;28;20208;-72
2022/04/10 04:59:07;;;;;;;3.80;3.40;;;1.80;99.90;;;;;;5008417;28;20173;-71
2022/04/10 05:01:32;;;;;;;3.67;3.37;;;1.80;99.90;;;;;;5010759;28;20320;-76
2022/04/10 05:03:58;;;;;;;3.47;3.27;;;1.80;99.90;;;;;;5004556;28;20543;-75
2022/04/10 05:06:27;;;;;;;4.73;3.20;;;1.90;99.90;;;;;;5008930;28;20197;-76
2022/04/10 05:08:53;;;;;;;3.10;2.90;;;1.90;99.90;;;;;;5000345;28;20325;-76
2022/04/10 05:11:18;;;;;;;5.17;3.70;;;1.90;99.90;;;;;;4998855;28;20280;-76
2022/04/10 05:13:44;;;;;;;4.00;3.57;;;1.90;99.90;;;;;;5004572;28;20183;-75
2022/04/10 05:16:10;;;;;;;4.63;3.40;;;2.00;99.90;;;;;;5002643;28;20174;-76
2022/04/10 05:18:36;;;;;;;3.90;3.60;;;2.00;99.90;;;;;;5007427;28;20201;-76
2022/04/10 05:21:02;;;;;;;3.80;3.40;;;2.00;99.90;;;;;;5001388;28;20182;-76
2022/04/10 05:23:28;;;;;;;4.73;3.63;;;2.00;99.90;;;;;;5010741;28;20176;-74
2022/04/10 05:25:54;;;;;;;3.57;3.37;;;2.00;99.90;;;;;;5011260;28;20204;-75
2022/04/10 05:28:20;;;;;;;4.40;3.50;;;2.20;99.90;;;;;;5004318;28;20201;-73
2022/04/10 05:30:46;;;;;;;3.73;3.43;;;2.20;99.90;;;;;;5016313;28;20258;-75
2022/04/10 05:33:12;;;;;;;5.20;4.40;;;2.20;99.90;;;;;;5012557;28;20203;-75
2022/04/10 05:35:38;;;;;;;5.20;4.80;;;2.40;99.90;;;;;;5010097;28;20653;-74
2022/04/10 05:38:04;;;;;;;4.53;4.20;;;2.40;99.90;;;;;;5008037;28;20233;-73
2022/04/10 05:40:31;;;;;;;5.83;4.20;;;2.60;99.90;;;;;;5014566;28;20176;-73
2022/04/10 05:42:56;;;;;;;7.23;4.40;;;2.80;99.90;;;;;;5012594;28;20230;-71
2022/04/10 05:45:22;;;;;;;5.87;4.53;;;2.90;99.90;;;;;;5007069;28;20194;-73
2022/04/10 05:47:48;;;;;;;5.73;5.23;;;3.00;99.90;;;;;;5004791;28;20224;-72
2022/04/10 05:50:16;;;;;;;6.73;4.57;;;3.10;99.90;;;;;;5011005;28;20204;-73
2022/04/10 05:52:47;;;;;;;4.10;3.70;;;3.20;99.90;;;;;;5003553;28;20656;-73
2022/04/10 05:55:21;;;;;;;6.57;4.23;;;3.30;99.90;;;;;;5009201;28;20642;-73
2022/04/10 05:57:47;;;;;;;3.87;3.57;;;3.40;99.90;;;;;;5004597;28;20197;-72
2022/04/10 06:00:15;;;;;;;4.57;4.17;;;3.40;99.90;;;;;;4998389;28;20177;-72
2022/04/10 06:02:42;;;;;;;3.57;3.23;;;3.50;99.90;;;;;;5002389;28;20184;-72
2022/04/10 06:05:08;;;;;;;7.07;4.50;;;3.50;99.90;;;;;;5004468;28;20193;-72
2022/04/10 06:07:34;;;;;;;5.97;4.30;;;3.50;99.90;;;;;;5012952;28;20320;-72
2022/04/10 06:10:00;;;;;;;5.63;4.37;;;3.60;99.90;;;;;;5010570;28;20216;-72
2022/04/10 06:12:26;;;;;;;3.73;3.43;;;3.70;99.90;;;;;;5007801;28;20193;-71
2022/04/10 06:14:52;;;;;;;5.37;4.83;;;3.70;99.90;;;;;;5006713;28;20185;-72
2022/04/10 06:17:17;;;;;;;4.87;4.40;;;3.90;99.90;;;;;;4997514;28;20197;-69
2022/04/10 06:19:43;;;;;;;5.20;4.10;;;4.00;99.90;;;;;;4995456;28;20734;-70
2022/04/10 06:22:09;;;;;;;4.67;4.27;;;4.10;99.90;;;;;;5003735;28;20207;-71
2022/04/10 06:24:38;;;;;;;5.70;3.97;;;4.30;99.90;;;;;;5005137;28;20186;-69
2022/04/10 06:27:04;;;;;;;6.73;4.07;;;4.50;99.90;;;;;;5004677;28;20300;-69
2022/04/10 06:29:29;;;;;;;4.50;4.10;;;4.50;99.90;;;;;;5006233;28;20265;-69
2022/04/10 06:31:55;;;;;;;4.00;3.60;;;4.70;99.90;;;;;;5005477;28;20747;-69
2022/04/10 06:34:21;;;;;;;5.57;4.07;;;4.80;99.90;;;;;;5006255;28;20268;-72
2022/04/10 06:36:47;;;;;;;4.03;3.73;;;4.90;99.90;;;;;;5012256;28;20208;-71
2022/04/10 06:39:13;;;;;;;4.03;3.73;;;4.80;99.90;;;;;;5012083;28;20191;-71
2022/04/10 06:41:38;;;;;;;5.23;3.97;;;4.90;99.90;;;;;;5004361;28;20549;-71
2022/04/10 06:44:04;;;;;;;5.00;4.10;;;4.90;99.90;;;;;;4997532;28;20227;-71
2022/04/10 06:46:30;;;;;;;5.53;3.53;;;5.00;99.90;;;;;;5006460;28;20231;-72
2022/04/10 06:48:56;;;;;;;4.70;3.60;;;5.00;99.90;;;;;;5009441;28;20204;-74
2022/04/10 06:51:21;;;;;;;3.73;3.20;;;5.00;99.90;;;;;;5006262;28;20241;-74
2022/04/10 06:53:48;;;;;;;4.27;3.87;;;5.10;99.90;;;;;;5002566;28;20185;-73
2022/04/10 06:56:14;;;;;;;4.97;3.13;;;5.20;99.90;;;;;;5003331;28;20196;-73
2022/04/10 06:58:39;;;;;;;4.10;3.60;;;5.30;99.90;;;;;;5005558;28;20177;-73
2022/04/10 07:01:05;;;;;;;3.47;3.23;;;5.30;99.90;;;;;;5006276;28;20193;-74
2022/04/10 07:03:31;;;;;;;4.77;3.30;;;5.20;99.90;;;;;;5009556;28;20195;-73
2022/04/10 07:05:56;;;;;;;3.50;3.07;;;5.20;99.90;;;;;;5004732;28;20185;-75
2022/04/10 07:08:22;;;;;;;4.07;2.97;;;5.30;99.90;;;;;;5012177;28;20177;-75
2022/04/10 07:10:48;;;;;;;4.37;3.30;;;5.40;99.90;;;;;;5011431;28;20205;-74
2022/04/10 07:13:17;;;;;;;3.20;2.63;;;5.50;99.90;;;;;;5010730;28;20181;-76
2022/04/10 07:15:52;;;;;;;5.77;2.80;;;5.70;99.90;;;;;;5010797;28;20184;-74
2022/04/10 07:18:19;;;;;;;5.27;2.83;;;6.00;99.90;;;;;;5007165;28;20200;-73
2022/04/10 07:20:45;;;;;;;3.10;2.53;;;6.10;99.90;;;;;;4997585;28;20580;-74
2022/04/10 07:25:55;;;;;;;4.67;2.30;;;5.80;99.90;;;;;;5010138;28;20732;-72
2022/04/10 07:28:21;;;;;;;2.70;2.43;;;6.00;99.90;;;;;;5012807;28;20551;-72
2022/04/10 07:30:47;;;;;;;3.63;2.47;;;6.00;99.90;;;;;;5010970;28;20205;-72
2022/04/10 07:33:13;;;;;;;2.43;2.23;;;6.20;99.90;;;;;;5010235;28;20605;-71
2022/04/10 07:35:40;;;;;;;1.80;1.60;;;6.40;99.90;;;;;;5013684;28;20189;-71
2022/04/10 07:38:07;;;;;;;2.57;1.90;;;6.50;99.90;;;;;;5009603;28;20189;-72
2022/04/10 07:40:33;;;;;;;4.90;2.50;;;6.60;99.90;;;;;;5010038;28;20191;-74
2022/04/10 07:42:59;;;;;;;2.47;2.27;;;6.70;99.90;;;;;;5010594;28;20193;-74
2022/04/10 07:48:10;;;;;;;6.80;3.07;;;6.70;99.90;;;;;;5007566;28;20587;-75
2022/04/10 07:50:35;;;;;;;2.57;2.20;;;6.50;99.90;;;;;;5009126;28;20205;-75
2022/04/10 07:53:02;;;;;;;2.33;2.13;;;6.40;99.90;;;;;;5010505;28;20178;-73
2022/04/10 07:55:28;;;;;;;4.73;2.00;;;6.60;99.90;;;;;;5009785;28;20178;-73
2022/04/10 07:57:54;;;;;;;2.13;1.93;;;6.60;99.90;;;;;;5007296;28;20205;-70
2022/04/10 08:00:19;;;;;;;2.80;1.90;;;6.50;99.90;;;;;;5005983;28;20568;-70
2022/04/10 08:02:48;;;;;;;3.00;1.63;;;6.40;99.90;;;;;;5004299;28;20182;-70
2022/04/10 08:05:18;;;;;;;3.27;1.70;;;6.40;99.90;;;;;;4999244;28;20186;-70
2022/04/10 08:07:44;;;;;;;2.33;2.13;;;6.60;99.90;;;;;;4999357;28;20687;-73
2022/04/10 08:10:11;;;;;;;3.67;2.00;;;6.80;99.90;;;;;;4996612;28;20209;-73
2022/04/10 08:12:37;;;;;;;4.97;1.60;;;7.00;99.90;;;;;;5012206;28;20209;-72
2022/04/10 08:15:03;;;;;;;2.20;1.87;;;7.00;99.90;;;;;;5013427;28;20224;-77
2022/04/10 08:17:29;;;;;;;2.10;1.77;;;7.10;99.90;;;;;;5007893;28;20204;-77
2022/04/10 08:19:56;;;;;;;4.27;1.63;;;7.00;99.90;;;;;;5010872;28;20187;-78
2022/04/10 08:22:26;;;;;;;1.57;1.40;;;7.10;99.90;;;;;;5013023;28;20290;-71
2022/04/10 08:24:52;;;;;;;2.40;1.70;;;7.30;99.90;;;;;;5003103;28;20183;-71
2022/04/10 08:27:18;;;;;;;7.50;1.70;;;7.40;99.90;;;;;;5007956;28;20602;-71
2022/04/10 08:29:43;;;;;;;2.25;1.60;;;7.60;99.90;;;;;;5012054;28;20177;-71
2022/04/10 08:32:09;;;;;;;2.35;1.50;;;7.80;99.90;;;;;;5015109;28;20181;-71
2022/04/10 08:34:35;;;;;;;2.28;2.08;;;8.20;99.90;;;;;;5007655;28;20189;-74
2022/04/10 08:37:05;;;;;;;3.30;2.20;;;7.90;99.90;;;;;;5015192;28;20216;-75
2022/04/10 08:39:34;;;;;;;3.17;2.17;;;7.80;99.90;;;;;;5014102;28;20173;-74
2022/04/10 08:42:04;;;;;;;1.90;1.80;;;7.50;99.90;;;;;;5009362;28;20532;-75
2022/04/10 08:44:31;;;;;;;2.42;1.95;;;7.30;99.90;;;;;;5006741;28;20177;-73
2022/04/10 08:46:58;;;;;;;3.03;2.25;;;7.50;99.90;;;;;;5013971;28;20197;-75
2022/04/10 08:49:26;;;;;;;3.28;1.73;;;7.60;99.90;;;;;;5012581;28;20205;-75
2022/04/10 08:51:53;;;;;;;2.17;1.50;;;7.80;99.90;;;;;;5013615;28;20209;-78
2022/04/10 08:54:19;;;;;;;1.58;1.48;;;8.00;99.90;;;;;;5014546;28;20239;-81
2022/04/10 08:56:45;;;;;;;1.67;1.58;;;8.70;99.90;;;;;;5015935;28;20197;-77
2022/04/10 08:59:11;;;;;;;3.10;2.05;;;9.00;99.90;;;;;;5014513;28;20188;-76
2022/04/10 09:01:37;;;;;;;3.38;1.80;;;9.10;97.30;;;;;;5015735;28;20660;-78
2022/04/10 09:04:03;;;;;;;3.20;1.80;;;9.10;97.80;;;;;;5012181;28;20189;-75
2022/04/10 09:06:29;;;;;;;1.83;1.73;;;9.50;96.90;;;;;;5008274;28;20292;-77
2022/04/10 09:09:11;;;;;;;1.50;1.40;;;9.80;94.50;;;;;;5012637;28;20208;-76
2022/04/10 09:11:39;;;;;;;3.88;1.80;;;10.30;92.20;;;;;;5012705;28;20213;-75
2022/04/10 09:14:06;;;;;;;2.40;1.58;;;10.90;85.70;;;;;;5011403;28;20184;-76
2022/04/10 09:16:32;;;;;;;2.25;1.50;;;10.90;86.40;;;;;;5009657;28;20216;-75
2022/04/10 09:19:10;;;;;;;1.52;1.42;;;10.60;86.10;;;;;;5006353;28;20173;-74
2022/04/10 09:21:39;;;;;;;1.42;1.33;;;10.20;86.90;;;;;;5013957;28;20539;-75
2022/04/10 09:24:05;;;;;;;1.60;1.50;;;9.80;87.30;;;;;;5008118;28;20271;-73
2022/04/10 09:26:47;;;;;;;2.00;1.70;;;10.10;87.00;;;;;;5004817;28;20252;-74
2022/04/10 09:29:17;;;;;;;2.70;2.30;;;12.40;87.00;;;;;;5016132;28;20173;-74
2022/04/10 09:31:43;;;;;;;2.65;1.52;;;14.40;72.60;;;;;;5012300;28;21836;-74
2022/04/10 09:34:20;;;;;;;2.00;1.73;;;15.10;60.80;;;;;;5005986;28;20182;-75
2022/04/10 09:36:58;;;;;;;2.55;1.50;;;14.70;59.90;;;;;;5005641;28;20683;-75
2022/04/10 09:39:31;;;;;;;3.83;1.50;;;14.00;60.90;;;;;;5003556;28;20181;-75
2022/04/10 09:42:07;;;;;;;2.05;1.70;;;13.10;60.70;;;;;;5003997;28;20656;-75
2022/04/10 09:44:34;;;;;;;2.40;1.65;;;12.20;62.20;;;;;;5007305;28;20189;-75
2022/04/10 09:47:03;;;;;;;2.17;1.55;;;12.10;65.40;;;;;;5006899;28;20189;-74
2022/04/10 09:49:48;;;;;;;2.15;1.50;;;12.40;61.80;;;;;;5008636;28;20181;-74
2022/04/10 09:52:17;;;;;;;1.13;1.10;;;13.60;60.30;;;;;;5009755;28;20259;-75
2022/04/10 09:54:48;;;;;;;1.65;1.20;;;15.20;54.70;;;;;;5013850;28;20184;-75
2022/04/10 09:57:15;;;;;;;2.13;1.50;;;14.50;54.70;;;;;;5006452;28;20200;-74
2022/04/10 09:59:50;;;;;;;2.67;1.60;;;13.70;56.60;;;;;;5009093;28;20192;-74
2022/04/10 10:02:17;;;;;;;2.50;1.50;;;13.00;56.10;;;;;;4999838;28;20657;-74
2022/04/10 10:04:46;;;;;;;2.33;1.67;;;12.40;57.50;;;;;;5003422;28;20192;-74
2022/04/10 10:07:21;;;;;;;2.03;1.50;;;11.70;58.80;;;;;;4998944;28;20197;-76
2022/04/10 10:09:48;;;;;;;2.20;1.58;;;11.60;59.30;;;;;;4998529;28;20555;-76
2022/04/10 10:12:15;;;;;;;3.55;1.35;;;11.50;60.10;;;;;;5011470;28;20294;-76
2022/04/10 10:14:41;;;;;;;1.25;1.20;;;11.50;59.20;;;;;;5014627;28;20169;-77
2022/04/10 10:17:09;;;;;;;3.88;1.42;;;11.10;59.70;;;;;;5016190;28;20199;-75
2022/04/10 10:19:39;;;;;;;1.95;1.00;;;10.80;59.40;;;;;;5011291;28;20196;-75
2022/04/10 10:22:13;;;;;;;1.55;1.45;;;11.50;58.40;;;;;;5013908;28;20645;-76
2022/04/10 10:25:03;;;;;;;3.30;1.38;;;11.50;60.40;;;;;;5013111;28;20644;-76
2022/04/10 10:27:59;;;;;;;1.63;1.52;;;11.50;60.60;;;;;;5012554;28;20299;-76
2022/04/10 10:30:29;;;;;;;1.52;1.33;;;11.50;59.10;;;;;;5008388;28;20336;-76
2022/04/10 10:33:15;;;;;;;3.35;1.65;;;11.50;58.60;;;;;;5009391;28;20660;-76
2022/04/10 10:35:43;;;;;;;3.30;1.70;;;11.60;60.60;;;;;;5013565;28;20522;-76
2022/04/10 10:38:49;;;;;;;2.08;1.77;;;12.00;62.80;;;;;;5006035;28;20194;-75
2022/04/10 10:41:17;;;;;;;2.00;1.30;;;12.40;59.70;;;;;;5017207;28;20201;-76
2022/04/10 10:43:44;;;;;;;1.92;1.70;;;12.50;57.50;;;;;;5009253;28;20211;-75
2022/04/10 10:46:23;;;;;;;1.70;1.35;;;12.40;57.20;;;;;;5010785;28;20274;-75
2022/04/10 10:49:09;;;;;;;1.10;1.05;;;12.20;58.20;;;;;;5009607;28;20642;-75
2022/04/10 10:51:41;;;;;;;2.03;1.40;;;12.20;56.30;;;;;;5012869;28;20877;-75
2022/04/10 10:54:11;;;;;;;1.38;1.13;;;12.30;57.00;;;;;;5010114;28;20192;-76
2022/04/10 10:56:39;;;;;;;1.90;1.77;;;12.10;56.50;;;;;;5005302;28;20245;-75
2022/04/10 10:59:35;;;;;;;2.85;1.20;;;11.60;56.70;;;;;;5008425;28;20178;-75
2022/04/10 11:02:03;;;;;;;1.83;1.65;;;11.00;57.90;;;;;;5010380;28;20173;-76
2022/04/10 11:04:43;;;;;;;2.20;1.30;;;10.80;59.90;;;;;;5005815;28;20234;-76
2022/04/10 11:07:27;;;;;;;1.40;1.30;;;11.10;59.40;;;;;;5007247;28;20207;-76
2022/04/10 11:10:09;;;;;;;2.80;1.38;;;10.90;60.30;;;;;;5011526;28;20181;-75
2022/04/10 11:12:56;;;;;;;2.35;1.50;;;10.90;60.20;;;;;;5013360;28;20177;-76
2022/04/10 11:15:22;;;;;;;1.35;1.20;;;10.90;58.90;;;;;;5012310;28;20269;-75
2022/04/10 11:17:52;;;;;;;2.40;1.30;;;11.10;58.40;;;;;;5010066;28;20204;-75
2022/04/10 11:20:20;;;;;;;1.40;1.25;;;11.90;57.90;;;;;;5010561;28;20208;-76
2022/04/10 11:22:52;;;;;;;1.20;1.10;;;13.00;54.50;;;;;;5006444;28;20230;-76
2022/04/10 11:25:19;;;;;;;1.13;1.02;;;13.60;53.50;;;;;;5008843;28;20692;-76
2022/04/10 11:27:56;;;;;;;1.88;1.10;;;14.30;51.90;;;;;;5010399;28;20224;-75
2022/04/10 11:30:28;;;;;;;3.13;1.20;;;15.40;52.50;;;;;;5011076;28;20230;-75
2022/04/10 11:33:01;;;;;;;2.72;1.40;;;17.20;49.90;;;;;;5015969;28;20656;-75
2022/04/10 11:35:33;;;;;;;1.48;1.35;;;18.70;47.40;;;;;;5012783;28;20181;-77
2022/04/10 11:38:05;;;;;;;2.17;1.23;;;20.50;44.80;;;;;;5010297;28;20196;-76
2022/04/10 11:40:34;;;;;;;1.88;1.20;;;22.00;43.60;;;;;;5013011;28;20191;-76
2022/04/10 11:43:02;;;;;;;1.00;0.98;;;22.00;40.40;;;;;;5009892;28;20178;-76
2022/04/10 11:45:30;;;;;;;1.55;1.27;;;20.30;40.40;;;;;;5011506;28;20180;-78
2022/04/10 11:47:56;;;;;;;1.67;1.42;;;18.10;43.40;;;;;;5011636;28;20292;-77
2022/04/10 11:50:24;;;;;;;1.55;1.13;;;16.60;45.70;;;;;;5027666;28;20209;-75
2022/04/10 11:53:11;;;;;;;1.27;1.17;;;15.70;47.20;;;;;;5015962;28;20186;-81
2022/04/10 11:58:27;;;;;;;1.10;1.10;;;16.40;50.00;;;;;;5014713;28;20180;-78
2022/04/10 12:00:55;;;;;;;2.15;1.25;;;16.90;45.80;;;;;;5011747;28;20719;-76
2022/04/10 12:03:22;;;;;;;1.02;1.02;;;16.50;47.10;;;;;;5012222;28;20178;-77
2022/04/10 12:05:49;;;;;;;1.90;1.27;;;16.80;46.60;;;;;;5011482;28;20181;-78
2022/04/10 12:09:07;;;;;;;2.55;1.30;;;17.40;45.10;;;;;;5017998;28;20197;-80
2022/04/10 12:11:08;;;;;;;1.13;1.10;;;18.50;46.10;;;;;;5013069;28;20599;-78
2022/04/10 12:13:34;;;;;;;1.35;1.17;;;19.90;42.90;;;;;;5016322;28;20177;-75
2022/04/10 12:16:25;;;;;;;1.77;1.35;;;21.10;41.30;;;;;;5018218;28;20184;-79
2022/04/10 12:18:54;;;;;;;1.35;1.25;;;21.50;40.00;;;;;;5014520;28;20194;-79
2022/04/10 12:21:22;;;;;;;1.60;1.40;;;21.20;40.00;;;;;;5027622;28;20259;-77
2022/04/10 12:23:58;;;;;;;1.30;1.20;;;20.60;42.50;;;;;;5014218;28;20269;-78
2022/04/10 12:26:26;;;;;;;1.95;1.20;;;20.80;41.20;;;;;;5012761;28;20216;-76
2022/04/10 12:28:52;;;;;;;1.40;1.30;;;21.00;39.60;;;;;;5009630;28;20675;-76
2022/04/10 12:31:19;;;;;;;1.17;1.10;;;20.50;39.60;;;;;;5019112;28;20205;-76
2022/04/10 12:33:46;;;;;;;2.08;1.40;;;19.80;40.50;;;;;;5012743;28;20181;-76
2022/04/10 12:36:17;;;;;;;3.30;1.63;;;18.00;41.80;;;;;;5016754;28;20704;-77
2022/04/10 12:38:43;;;;;;;1.85;1.20;;;16.30;43.60;;;;;;5017211;28;20174;-77
2022/04/10 12:41:08;;;;;;;1.55;1.10;;;15.40;45.10;;;;;;5016716;28;20205;-77
2022/04/10 12:43:34;;;;;;;1.42;1.20;;;15.00;46.20;;;;;;5015009;28;20190;-77
2022/04/10 12:46:13;;;;;;;1.50;1.08;;;14.60;48.20;;;;;;5015675;28;20185;-75
2022/04/10 12:48:39;;;;;;;1.85;1.23;;;15.40;47.00;;;;;;5014435;28;20177;-74
2022/04/10 12:51:12;;;;;;;1.98;0.90;;;16.70;45.40;;;;;;5009439;28;20340;-77
2022/04/10 12:53:38;;;;;;;0.93;0.88;;;17.70;44.50;;;;;;5014366;28;20178;-80
2022/04/10 12:56:17;;;;;;;1.55;1.45;;;17.70;44.30;;;;;;5014884;28;20181;-78
2022/04/10 12:58:49;;;;;;;1.50;1.20;;;17.00;44.70;;;;;;5016414;28;20173;-79
2022/04/10 13:01:29;;;;;;;1.40;0.95;;;16.00;46.00;;;;;;5015317;28;20239;-76
2022/04/10 13:03:56;;;;;;;1.73;1.27;;;14.50;47.70;;;;;;5008815;28;20177;-76
2022/04/10 13:06:27;;;;;;;1.48;1.38;;;13.50;50.80;;;;;;5009132;28;20302;-76